Time,TemperatureF,DewpointF,PressureIn,WindDirection,WindDirectionDegrees,WindSpeedMPH,WindSpeedGustMPH,Humidity,HourlyPrecipIn,Conditions,Clouds,dailyrainin,SoftwareType,DateUTC
2013-05-03 00:01:00,73.0,69.9,29.66,ESE,112,5.8,-999.0,90,-99.99,,,0.00,Acu-Link.com,2013-05-03 04:01:00,
2013-05-03 00:16:00,73.4,70.3,29.66,ESE,112,5.3,-999.0,90,-99.99,,,0.00,Acu-Link.com,2013-05-03 04:16:00,
2013-05-03 00:31:00,73.4,70.6,29.65,ESE,112,7.8,-999.0,91,-99.99,,,0.00,Acu-Link.com,2013-05-03 04:31:00,
2013-05-03 00:46:00,73.4,70.6,29.64,ESE,112,6.3,-999.0,91,-99.99,,,0.00,Acu-Link.com,2013-05-03 04:46:00,
2013-05-03 01:01:00,73.4,70.6,29.64,ESE,112,5.3,-999.0,91,-99.99,,,0.00,Acu-Link.com,2013-05-03 05:01:00,
2013-05-03 01:16:00,73.2,70.7,29.63,ESE,112,1.7,-999.0,92,-99.99,,,0.00,Acu-Link.com,2013-05-03 05:16:00,
2013-05-03 01:31:00,72.7,70.6,29.61,ESE,112,2.2,-999.0,93,-99.99,,,0.00,Acu-Link.com,2013-05-03 05:31:00,
2013-05-03 01:46:00,72.0,70.2,29.60,ENE,67,0.0,-999.0,94,-99.99,,,0.00,Acu-Link.com,2013-05-03 05:46:00,
2013-05-03 02:01:00,71.6,70.4,29.59,NNW,337,2.2,-999.0,96,-99.99,,,0.00,Acu-Link.com,2013-05-03 06:01:00,
2013-05-03 02:17:00,72.0,71.4,29.59,NNW,337,2.7,-999.0,98,-99.99,,,0.01,Acu-Link.com,2013-05-03 06:17:00,
2013-05-03 02:32:00,71.8,71.5,29.57,NW,315,4.2,-999.0,99,-99.99,,,0.02,Acu-Link.com,2013-05-03 06:32:00,
2013-05-03 02:47:00,71.6,71.3,29.57,WNW,292,1.7,-999.0,99,-99.99,,,0.02,Acu-Link.com,2013-05-03 06:47:00,
2013-05-03 03:02:00,71.4,71.1,29.57,West,270,4.2,-999.0,99,-99.99,,,0.02,Acu-Link.com,2013-05-03 07:02:00,
2013-05-03 03:17:00,71.1,70.8,29.57,WNW,292,4.2,-999.0,99,-99.99,,,0.02,Acu-Link.com,2013-05-03 07:17:00,
2013-05-03 03:32:00,70.9,70.6,29.57,WNW,292,3.2,-999.0,99,-99.99,,,0.02,Acu-Link.com,2013-05-03 07:32:00,
2013-05-03 03:47:00,70.7,70.4,29.57,West,270,3.7,-999.0,99,-99.99,,,0.03,Acu-Link.com,2013-05-03 07:47:00,
2013-05-03 04:03:00,70.7,70.4,29.57,West,270,6.8,-999.0,99,-99.99,,,0.03,Acu-Link.com,2013-05-03 08:03:00,
2013-05-03 04:18:00,70.5,70.2,29.58,WSW,247,4.7,-999.0,99,-99.99,,,0.07,Acu-Link.com,2013-05-03 08:18:00,
2013-05-03 04:33:00,70.2,69.9,29.57,West,270,5.8,-999.0,99,-99.99,,,0.11,Acu-Link.com,2013-05-03 08:33:00,
2013-05-03 04:48:00,70.0,69.7,29.56,SW,225,3.7,-999.0,99,-99.99,,,0.11,Acu-Link.com,2013-05-03 08:48:00,
2013-05-03 05:03:00,70.0,69.7,29.56,West,270,6.8,-999.0,99,-99.99,,,0.11,Acu-Link.com,2013-05-03 09:03:00,
2013-05-03 05:19:00,69.6,69.3,29.57,West,270,1.7,-999.0,99,-99.99,,,0.11,Acu-Link.com,2013-05-03 09:19:00,
2013-05-03 05:34:00,69.4,69.1,29.57,WSW,247,3.2,-999.0,99,-99.99,,,0.11,Acu-Link.com,2013-05-03 09:34:00,
2013-05-03 05:49:00,69.3,69.0,29.59,SW,225,3.7,-999.0,99,-99.99,,,0.11,Acu-Link.com,2013-05-03 09:49:00,
2013-05-03 06:04:00,69.3,69.0,29.59,West,270,5.3,-999.0,99,-99.99,,,0.11,Acu-Link.com,2013-05-03 10:04:00,
2013-05-03 06:20:00,68.7,68.4,29.60,WSW,247,3.2,-999.0,99,-99.99,,,0.11,Acu-Link.com,2013-05-03 10:20:00,
2013-05-03 06:35:00,68.2,67.9,29.59,WSW,247,3.2,-999.0,99,-99.99,,,0.11,Acu-Link.com,2013-05-03 10:35:00,
2013-05-03 06:50:00,68.0,67.7,29.60,West,270,4.7,-999.0,99,-99.99,,,0.11,Acu-Link.com,2013-05-03 10:50:00,
2013-05-03 07:05:00,67.8,67.5,29.59,SW,225,4.7,-999.0,99,-99.99,,,0.11,Acu-Link.com,2013-05-03 11:05:00,
2013-05-03 07:20:00,67.8,67.5,29.60,SW,225,5.3,-999.0,99,-99.99,,,0.11,Acu-Link.com,2013-05-03 11:20:00,
2013-05-03 07:35:00,68.4,68.1,29.61,WSW,247,2.2,-999.0,99,-99.99,,,0.11,Acu-Link.com,2013-05-03 11:35:00,
2013-05-03 07:50:00,68.5,68.2,29.61,SW,225,6.8,-999.0,99,-99.99,,,0.11,Acu-Link.com,2013-05-03 11:50:00,
2013-05-03 08:05:00,68.5,68.2,29.59,SSW,202,4.2,-999.0,99,-99.99,,,0.11,Acu-Link.com,2013-05-03 12:05:00,
2013-05-03 08:20:00,68.5,68.2,29.60,SSW,202,6.8,-999.0,99,-99.99,,,0.11,Acu-Link.com,2013-05-03 12:20:00,
2013-05-03 08:36:00,69.3,69.0,29.61,SW,225,3.7,-999.0,99,-99.99,,,0.11,Acu-Link.com,2013-05-03 12:36:00,
2013-05-03 08:51:00,70.5,70.2,29.61,SSW,202,5.8,-999.0,99,-99.99,,,0.11,Acu-Link.com,2013-05-03 12:51:00,
2013-05-03 09:06:00,72.1,71.2,29.60,WSW,247,5.3,-999.0,97,-99.99,,,0.11,Acu-Link.com,2013-05-03 13:06:00,
2013-05-03 09:21:00,73.9,71.1,29.61,SW,225,7.3,-999.0,91,-99.99,,,0.11,Acu-Link.com,2013-05-03 13:21:00,
2013-05-03 09:36:00,73.9,70.8,29.61,West,270,9.4,-999.0,90,-99.99,,,0.11,Acu-Link.com,2013-05-03 13:36:00,
2013-05-03 09:51:00,75.4,70.9,29.62,SSW,202,5.3,-999.0,86,-99.99,,,0.12,Acu-Link.com,2013-05-03 13:51:00,
2013-05-03 10:07:00,76.5,70.6,29.61,West,270,4.7,-999.0,82,-99.99,,,0.12,Acu-Link.com,2013-05-03 14:07:00,
2013-05-03 10:22:00,77.7,71.0,29.62,SW,225,7.8,-999.0,80,-99.99,,,0.12,Acu-Link.com,2013-05-03 14:22:00,
2013-05-03 10:37:00,78.1,69.9,29.61,WSW,247,10.9,-999.0,76,-99.99,,,0.12,Acu-Link.com,2013-05-03 14:37:00,
2013-05-03 10:52:00,79.0,70.0,29.62,WSW,247,10.4,-999.0,74,-99.99,,,0.12,Acu-Link.com,2013-05-03 14:52:00,
2013-05-03 11:07:00,78.4,69.8,29.61,West,270,7.3,-999.0,75,-99.99,,,0.12,Acu-Link.com,2013-05-03 15:07:00,
2013-05-03 11:22:00,79.2,69.8,29.62,SW,225,11.4,-999.0,73,-99.99,,,0.12,Acu-Link.com,2013-05-03 15:22:00,
2013-05-03 11:37:00,81.1,69.9,29.61,WSW,247,9.9,-999.0,69,-99.99,,,0.12,Acu-Link.com,2013-05-03 15:37:00,
2013-05-03 11:52:00,81.5,69.5,29.62,West,270,7.3,-999.0,67,-99.99,,,0.12,Acu-Link.com,2013-05-03 15:52:00,
2013-05-03 12:07:00,82.2,69.7,29.61,WSW,247,6.3,-999.0,66,-99.99,,,0.12,Acu-Link.com,2013-05-03 16:07:00,
2013-05-03 12:23:00,83.5,69.6,29.61,SW,225,2.7,-999.0,63,-99.99,,,0.12,Acu-Link.com,2013-05-03 16:23:00,
2013-05-03 12:38:00,83.1,69.2,29.61,SSW,202,4.2,-999.0,63,-99.99,,,0.12,Acu-Link.com,2013-05-03 16:38:00,
2013-05-03 12:53:00,82.6,69.2,29.60,WSW,247,4.2,-999.0,64,-99.99,,,0.12,Acu-Link.com,2013-05-03 16:53:00,
2013-05-03 13:08:00,81.1,68.2,29.60,West,270,4.7,-999.0,65,-99.99,,,0.12,Acu-Link.com,2013-05-03 17:08:00,
2013-05-03 13:23:00,83.7,69.3,29.59,South,180,5.8,-999.0,62,-99.99,,,0.12,Acu-Link.com,2013-05-03 17:23:00,
2013-05-03 13:38:00,86.5,68.9,29.59,WSW,247,5.8,-999.0,56,-99.99,,,0.12,Acu-Link.com,2013-05-03 17:38:00,
2013-05-03 13:53:00,86.2,68.6,29.59,SW,225,4.7,-999.0,56,-99.99,,,0.12,Acu-Link.com,2013-05-03 17:53:00,
2013-05-03 14:08:00,86.7,68.6,29.57,WSW,247,2.2,-999.0,55,-99.99,,,0.12,Acu-Link.com,2013-05-03 18:08:00,
2013-05-03 14:23:00,84.4,67.5,29.57,NNE,22,0.0,-999.0,57,-99.99,,,0.12,Acu-Link.com,2013-05-03 18:23:00,
2013-05-03 14:39:00,86.0,67.4,29.56,SSE,157,3.7,-999.0,54,-99.99,,,0.12,Acu-Link.com,2013-05-03 18:39:00,
2013-05-03 14:54:00,87.6,67.2,29.55,West,270,4.7,-999.0,51,-99.99,,,0.12,Acu-Link.com,2013-05-03 18:54:00,
2013-05-03 15:09:00,86.2,68.1,29.55,SW,225,1.7,-999.0,55,-99.99,,,0.12,Acu-Link.com,2013-05-03 19:09:00,
2013-05-03 15:24:00,86.0,66.8,29.56,WSW,247,3.7,-999.0,53,-99.99,,,0.12,Acu-Link.com,2013-05-03 19:24:00,
2013-05-03 15:39:00,88.2,67.2,29.55,West,270,6.3,-999.0,50,-99.99,,,0.12,Acu-Link.com,2013-05-03 19:39:00,
2013-05-03 15:54:00,84.7,70.7,29.55,West,270,4.2,-999.0,63,-99.99,,,0.12,Acu-Link.com,2013-05-03 19:54:00,
2013-05-03 16:10:00,82.6,70.1,29.54,ESE,112,6.3,-999.0,66,-99.99,,,0.12,Acu-Link.com,2013-05-03 20:10:00,
2013-05-03 16:25:00,81.5,69.9,29.54,SSE,157,3.7,-999.0,68,-99.99,,,0.12,Acu-Link.com,2013-05-03 20:25:00,
2013-05-03 16:40:00,81.0,69.8,29.55,South,180,4.7,-999.0,69,-99.99,,,0.12,Acu-Link.com,2013-05-03 20:40:00,
2013-05-03 16:55:00,81.3,70.1,29.53,ESE,112,4.2,-999.0,69,-99.99,,,0.12,Acu-Link.com,2013-05-03 20:55:00,
2013-05-03 17:10:00,80.8,69.7,29.53,SSE,157,3.7,-999.0,69,-99.99,,,0.12,Acu-Link.com,2013-05-03 21:10:00,
2013-05-03 17:25:00,80.6,69.0,29.53,ESE,112,5.8,-999.0,68,-99.99,,,0.12,Acu-Link.com,2013-05-03 21:25:00,
2013-05-03 17:41:00,80.1,68.6,29.52,SSW,202,8.9,-999.0,68,-99.99,,,0.12,Acu-Link.com,2013-05-03 21:41:00,
2013-05-03 17:56:00,78.8,71.3,29.53,South,180,8.9,-999.0,78,-99.99,,,0.12,Acu-Link.com,2013-05-03 21:56:00,
2013-05-03 18:11:00,76.5,71.6,29.54,South,180,10.4,-999.0,85,-99.99,,,0.13,Acu-Link.com,2013-05-03 22:11:00,
2013-05-03 18:26:00,70.9,68.5,29.56,WSW,247,3.7,-999.0,92,-99.99,,,0.17,Acu-Link.com,2013-05-03 22:26:00,
2013-05-03 18:41:00,71.2,67.8,29.54,SSW,202,2.2,-999.0,89,-99.99,,,0.33,Acu-Link.com,2013-05-03 22:41:00,
2013-05-03 18:56:00,71.1,67.7,29.55,SSW,202,2.7,-999.0,89,-99.99,,,0.36,Acu-Link.com,2013-05-03 22:56:00,
2013-05-03 19:11:00,70.9,67.8,29.54,SSW,202,0.0,-999.0,90,-99.99,,,0.36,Acu-Link.com,2013-05-03 23:11:00,
2013-05-03 19:26:00,71.2,68.1,29.55,SSW,202,0.0,-999.0,90,-99.99,,,0.36,Acu-Link.com,2013-05-03 23:26:00,
2013-05-03 19:41:00,70.5,68.7,29.56,WSW,247,1.7,-999.0,94,-99.99,,,0.36,Acu-Link.com,2013-05-03 23:41:00,
2013-05-03 19:57:00,70.3,68.8,29.57,West,270,3.2,-999.0,95,-99.99,,,0.37,Acu-Link.com,2013-05-03 23:57:00,
2013-05-03 20:12:00,70.3,68.8,29.57,NW,315,3.2,-999.0,95,-99.99,,,0.37,Acu-Link.com,2013-05-04 00:12:00,
2013-05-03 20:27:00,70.3,68.8,29.58,West,270,1.7,-999.0,95,-99.99,,,0.37,Acu-Link.com,2013-05-04 00:27:00,
2013-05-03 20:42:00,70.3,69.4,29.58,SW,225,2.7,-999.0,97,-99.99,,,0.37,Acu-Link.com,2013-05-04 00:42:00,
2013-05-03 20:57:00,70.7,70.1,29.58,SW,225,3.7,-999.0,98,-99.99,,,0.39,Acu-Link.com,2013-05-04 00:57:00,
2013-05-03 21:12:00,70.7,70.1,29.59,SW,225,3.2,-999.0,98,-99.99,,,0.42,Acu-Link.com,2013-05-04 01:12:00,
2013-05-03 21:27:00,70.7,70.1,29.59,SSW,202,4.7,-999.0,98,-99.99,,,0.42,Acu-Link.com,2013-05-04 01:27:00,
2013-05-03 21:42:00,70.5,69.9,29.59,SSW,202,1.7,-999.0,98,-99.99,,,0.42,Acu-Link.com,2013-05-04 01:42:00,
2013-05-03 21:57:00,70.3,70.0,29.60,West,270,0.0,-999.0,99,-99.99,,,0.42,Acu-Link.com,2013-05-04 01:57:00,
2013-05-03 22:13:00,70.3,70.0,29.59,SSW,202,1.7,-999.0,99,-99.99,,,0.42,Acu-Link.com,2013-05-04 02:13:00,
2013-05-03 22:28:00,70.2,69.9,29.59,SSW,202,3.2,-999.0,99,-99.99,,,0.42,Acu-Link.com,2013-05-04 02:28:00,
2013-05-03 22:43:00,70.0,69.7,29.59,West,270,2.2,-999.0,99,-99.99,,,0.42,Acu-Link.com,2013-05-04 02:43:00,
2013-05-03 22:58:00,69.8,69.5,29.59,SSW,202,0.0,-999.0,99,-99.99,,,0.42,Acu-Link.com,2013-05-04 02:58:00,
2013-05-03 23:13:00,69.6,69.3,29.59,SSW,202,0.0,-999.0,99,-99.99,,,0.42,Acu-Link.com,2013-05-04 03:13:00,
2013-05-03 23:28:00,69.4,69.1,29.58,SSW,202,0.0,-999.0,99,-99.99,,,0.42,Acu-Link.com,2013-05-04 03:28:00,
2013-05-03 23:43:00,69.3,69.0,29.58,SSW,202,1.7,-999.0,99,-99.99,,,0.42,Acu-Link.com,2013-05-04 03:43:00,
2013-05-03 23:58:00,69.3,69.0,29.58,SSW,202,0.0,-999.0,99,-99.99,,,0.42,Acu-Link.com,2013-05-04 03:58:00,